Time;durP1;ratioP1;P1;durP2;ratioP2;P2;SDS_P1;SDS_P2;PMS_P1;PMS_P2;Temp;Humidity;BMP_temperature;BMP_pressure;BME280_temperature;BME280_humidity;BME280_pressure;Samples;Min_cycle;Max_cycle;Signal;HPM_P1;HPM_P2
2022/06/08 00:06:12;;;;;;;1.75;1.00;;;26.60;26.70;;;;;;20912431;28;20571;-69
2022/06/08 00:16:14;;;;;;;2.08;0.73;;;26.50;27.30;;;;;;20911937;28;20044;-68
2022/06/08 00:26:17;;;;;;;4.43;3.05;;;26.40;27.10;;;;;;20911999;28;20048;-68
2022/06/08 00:36:18;;;;;;;1.98;1.35;;;26.30;27.50;;;;;;20910985;28;20092;-69
2022/06/08 00:46:20;;;;;;;3.47;1.40;;;26.30;27.70;;;;;;20911121;28;20048;-68
2022/06/08 00:56:24;;;;;;;;;;;26.10;28.00;;;;;;20910766;28;20060;-68
2022/06/08 01:06:25;;;;;;;3.65;1.45;;;25.90;28.70;;;;;;20915068;28;20402;-70
2022/06/08 01:16:27;;;;;;;3.42;2.08;;;25.80;29.90;;;;;;20932598;28;20057;-68
2022/06/08 01:26:45;;;;;;;5.20;0.85;;;25.70;31.60;;;;;;20928421;28;20073;-67
2022/06/08 01:36:58;;;;;;;6.43;1.30;;;25.60;34.40;;;;;;20926250;28;20052;-67
2022/06/08 01:47:17;;;;;;;13.63;9.98;;;25.50;36.20;;;;;;20923795;28;20141;-69
2022/06/08 01:57:34;;;;;;;5.20;1.95;;;25.40;37.50;;;;;;20922631;28;20053;-68
2022/06/08 02:08:03;;;;;;;2.97;1.10;;;25.30;38.40;;;;;;20922580;28;20095;-64
2022/06/08 02:18:13;;;;;;;4.40;1.67;;;25.20;39.10;;;;;;20921035;28;20060;-66
2022/06/08 02:28:29;;;;;;;3.75;1.80;;;25.00;40.10;;;;;;20922781;28;20041;-65
2022/06/08 02:38:36;;;;;;;3.97;3.03;;;24.90;40.50;;;;;;20921173;28;20048;-68
2022/06/08 02:48:38;;;;;;;3.03;1.08;;;24.70;41.30;;;;;;20920350;28;20060;-68
2022/06/08 02:58:54;;;;;;;3.50;1.70;;;24.70;42.00;;;;;;20918796;28;20057;-65
2022/06/08 03:08:59;;;;;;;3.70;1.35;;;24.60;42.60;;;;;;20918402;28;20492;-66
2022/06/08 03:19:02;;;;;;;3.30;1.58;;;24.50;43.10;;;;;;20916736;28;20052;-63
2022/06/08 03:29:05;;;;;;;2.38;0.88;;;24.40;43.60;;;;;;20915718;28;20068;-67
2022/06/08 03:39:07;;;;;;;4.47;1.80;;;24.20;44.40;;;;;;20916061;28;20055;-67
2022/06/08 03:49:10;;;;;;;2.22;0.98;;;24.20;44.80;;;;;;20915138;28;20045;-65
2022/06/08 03:59:13;;;;;;;4.90;1.35;;;24.10;45.30;;;;;;20915011;28;20568;-67
2022/06/08 04:09:16;;;;;;;2.60;1.00;;;24.10;45.50;;;;;;20912205;28;20052;-67
2022/06/08 04:19:19;;;;;;;6.70;1.70;;;23.90;46.10;;;;;;20913649;28;20132;-67
2022/06/08 04:29:21;;;;;;;3.63;1.20;;;23.80;46.50;;;;;;20912200;28;20045;-67
2022/06/08 04:39:23;;;;;;;5.37;1.47;;;23.70;46.80;;;;;;20911710;28;20401;-67
2022/06/08 04:49:27;;;;;;;2.42;1.10;;;23.80;47.00;;;;;;20911611;28;20171;-67
2022/06/08 04:59:28;;;;;;;3.50;1.20;;;23.80;47.00;;;;;;20910267;28;20231;-64
2022/06/08 05:09:31;;;;;;;3.20;2.25;;;23.80;47.10;;;;;;20910462;28;20298;-68
2022/06/08 05:19:32;;;;;;;3.30;1.40;;;23.70;47.20;;;;;;20910241;28;20059;-65
2022/06/08 05:29:34;;;;;;;5.63;2.10;;;23.70;47.20;;;;;;20909899;28;20048;-67
2022/06/08 05:39:37;;;;;;;3.17;1.60;;;23.80;47.10;;;;;;20909185;28;20071;-69
2022/06/08 05:49:40;;;;;;;;;;;23.80;47.20;;;;;;20909735;28;20052;-67
2022/06/08 05:59:42;;;;;;;13.27;1.75;;;23.60;47.30;;;;;;20924308;28;19967;-64
2022/06/08 06:09:43;;;;;;;3.60;1.40;;;23.70;47.30;;;;;;20923230;28;20603;-64
2022/06/08 06:19:45;;;;;;;5.70;1.70;;;23.80;47.10;;;;;;20923095;28;20048;-65
2022/06/08 06:29:47;;;;;;;4.95;2.22;;;24.00;47.10;;;;;;20953010;28;20049;-67
2022/06/08 06:39:50;;;;;;;;;;;24.10;46.70;;;;;;20922403;28;20081;-68
2022/06/08 06:49:52;;;;;;;2.83;1.30;;;24.10;46.30;;;;;;20920203;28;19921;-67
2022/06/08 06:59:54;;;;;;;2.03;1.30;;;24.10;45.70;;;;;;20920876;28;20049;-69
2022/06/08 07:09:55;;;;;;;5.80;1.20;;;24.40;45.50;;;;;;20922274;28;20041;-67
2022/06/08 07:19:58;;;;;;;3.88;1.15;;;25.10;44.20;;;;;;20917492;28;20091;-66
2022/06/08 07:30:00;;;;;;;2.67;0.90;;;25.30;43.50;;;;;;20917747;28;20045;-67
2022/06/08 07:40:01;;;;;;;;;;;25.80;42.20;;;;;;20915723;28;20059;-68
2022/06/08 07:50:04;;;;;;;4.37;0.93;;;26.30;40.90;;;;;;20915600;28;19924;-69
2022/06/08 08:00:07;;;;;;;4.93;0.80;;;26.90;39.90;;;;;;20912190;28;20057;-67
2022/06/08 08:10:15;;;;;;;10.25;3.35;;;27.10;38.90;;;;;;20928226;28;20071;-59
2022/06/08 08:20:18;;;;;;;2.08;0.60;;;27.20;38.90;;;;;;20956561;28;20085;-63
2022/06/08 08:30:24;;;;;;;3.00;0.80;;;27.10;38.80;;;;;;20908072;28;20056;-58
2022/06/08 08:40:55;;;;;;;3.92;0.73;;;27.20;39.00;;;;;;20911674;28;20068;-57
2022/06/08 08:51:09;;;;;;;4.83;1.13;;;27.20;39.40;;;;;;20657655;28;20052;-58
2022/06/08 09:01:13;;;;;;;3.40;0.95;;;27.30;39.10;;;;;;20652511;28;20315;-56
2022/06/08 09:11:23;;;;;;;2.92;1.05;;;27.20;39.60;;;;;;20577737;28;20411;-58
2022/06/08 09:21:35;;;;;;;2.60;1.17;;;27.40;39.30;;;;;;20647648;28;20104;-60
2022/06/08 09:31:38;;;;;;;3.20;2.33;;;27.40;39.10;;;;;;20873019;28;20405;-58
2022/06/08 09:41:48;;;;;;;2.70;0.60;;;27.50;38.40;;;;;;20885860;28;20084;-71
2022/06/08 09:52:12;;;;;;;3.17;0.68;;;27.60;37.70;;;;;;20924276;28;20049;-69
2022/06/08 10:02:29;;;;;;;2.13;0.75;;;27.90;37.10;;;;;;20955958;28;20076;-70
2022/06/08 10:13:13;;;;;;;1.60;0.93;;;28.00;37.50;;;;;;20924914;28;20077;-70
2022/06/08 10:23:27;;;;;;;2.05;0.70;;;27.90;37.80;;;;;;20913836;28;20056;-70
2022/06/08 10:33:33;;;;;;;3.28;0.77;;;27.80;39.10;;;;;;20911305;28;20048;-71
2022/06/08 10:43:35;;;;;;;2.78;1.00;;;27.70;39.50;;;;;;20909822;28;20049;-69
2022/06/08 11:04:06;;;;;;;5.28;0.90;;;27.90;38.60;;;;;;20917941;28;20144;-65
2022/06/08 11:14:26;;;;;;;1.67;0.80;;;27.90;38.60;;;;;;20918349;28;20049;-62
2022/06/08 11:24:31;;;;;;;2.27;1.47;;;27.90;38.70;;;;;;20917185;28;20083;-62
2022/06/08 11:34:50;;;;;;;4.63;0.80;;;27.90;38.90;;;;;;20918156;28;20044;-68
2022/06/08 11:44:58;;;;;;;2.30;0.90;;;27.90;39.10;;;;;;20915878;28;20499;-68
2022/06/08 11:55:00;;;;;;;2.08;1.23;;;27.90;38.90;;;;;;20913632;28;20057;-71
2022/06/08 12:05:04;;;;;;;2.13;0.60;;;27.80;39.10;;;;;;20882992;28;20057;-58
2022/06/08 12:15:35;;;;;;;1.13;0.60;;;27.70;38.70;;;;;;20892749;28;20073;-56
2022/06/08 12:25:38;;;;;;;2.83;0.73;;;27.60;38.90;;;;;;20831273;28;20053;-54
2022/06/08 12:35:51;;;;;;;2.05;0.60;;;27.90;38.50;;;;;;20829739;28;20077;-57
2022/06/08 12:46:09;;;;;;;1.92;0.50;;;27.90;38.20;;;;;;20826212;28;20092;-58
2022/06/08 12:56:11;;;;;;;1.67;0.80;;;27.90;38.40;;;;;;20828868;28;20523;-57
2022/06/08 13:06:17;;;;;;;2.90;0.90;;;28.10;38.10;;;;;;20840378;28;20136;-67
2022/06/08 13:16:23;;;;;;;0.90;0.52;;;28.10;37.70;;;;;;20874537;28;20095;-67
2022/06/08 13:26:27;;;;;;;1.63;0.80;;;28.30;37.10;;;;;;20926869;28;20059;-71
2022/06/08 13:36:50;;;;;;;4.05;3.15;;;28.30;37.00;;;;;;20924483;28;20053;-68
2022/06/08 13:47:01;;;;;;;4.63;2.13;;;28.40;36.50;;;;;;20924065;28;20421;-70
2022/06/08 13:57:06;;;;;;;6.70;2.40;;;28.60;36.00;;;;;;20921882;28;20607;-70
2022/06/08 14:17:36;;;;;;;3.38;2.30;;;28.70;35.90;;;;;;20919854;28;20049;-69
2022/06/08 14:27:38;;;;;;;4.65;1.45;;;28.70;35.80;;;;;;20918296;28;20041;-69
2022/06/08 14:37:40;;;;;;;1.85;0.60;;;28.90;35.20;;;;;;20920927;28;20492;-69
2022/06/08 14:47:41;;;;;;;1.52;0.70;;;28.90;35.30;;;;;;20919323;28;20045;-68
2022/06/08 14:57:47;;;;;;;1.95;0.47;;;28.90;35.80;;;;;;20918233;28;20091;-69
2022/06/08 15:07:50;;;;;;;4.20;1.20;;;29.00;35.30;;;;;;20918736;28;20099;-69
2022/06/08 15:17:55;;;;;;;2.20;1.10;;;29.10;35.60;;;;;;20917136;28;20048;-68
2022/06/08 15:28:26;;;;;;;2.90;0.80;;;29.30;35.00;;;;;;20914208;28;20108;-70
2022/06/08 15:38:32;;;;;;;2.90;1.00;;;29.30;35.10;;;;;;20914423;28;20524;-70
2022/06/08 15:48:34;;;;;;;1.00;0.43;;;28.90;35.90;;;;;;20912557;28;20405;-68
2022/06/08 15:58:38;;;;;;;1.55;0.50;;;28.90;35.10;;;;;;20910202;28;20057;-68
2022/06/08 16:08:40;;;;;;;3.83;0.50;;;28.90;35.30;;;;;;20911672;28;20056;-58
2022/06/08 16:18:42;;;;;;;3.17;0.60;;;28.60;36.20;;;;;;20911028;28;20485;-59
2022/06/08 16:28:44;;;;;;;1.10;0.60;;;28.40;36.50;;;;;;20910866;28;20037;-58
2022/06/08 16:38:46;;;;;;;1.10;0.60;;;28.30;36.70;;;;;;20909430;28;20485;-58
2022/06/08 16:48:48;;;;;;;0.98;0.60;;;28.20;37.10;;;;;;20908439;28;20045;-60
2022/06/08 17:09:13;;;;;;;1.20;0.60;;;28.20;37.00;;;;;;20908698;28;20053;-57
2022/06/08 17:19:14;;;;;;;1.23;0.57;;;28.20;37.20;;;;;;20907035;28;20053;-59
2022/06/08 17:29:16;;;;;;;2.35;0.68;;;28.20;36.80;;;;;;20906491;28;20076;-58
2022/06/08 17:39:20;;;;;;;0.38;0.32;;;28.20;36.50;;;;;;20908700;28;20045;-58
2022/06/08 17:49:23;;;;;;;2.63;0.60;;;28.10;36.20;;;;;;20913054;28;20457;-60
2022/06/08 17:59:25;;;;;;;1.90;0.80;;;28.10;36.40;;;;;;20920718;28;20064;-61
2022/06/08 18:09:27;;;;;;;4.97;0.80;;;28.00;36.70;;;;;;20922800;28;20386;-60
2022/06/08 18:19:29;;;;;;;3.28;1.15;;;28.10;36.40;;;;;;20921377;28;20049;-59
2022/06/08 18:29:36;;;;;;;2.53;0.90;;;28.10;36.50;;;;;;20921365;28;20048;-60
2022/06/08 18:39:38;;;;;;;3.25;1.40;;;28.10;36.20;;;;;;20919775;28;20060;-60
2022/06/08 18:49:40;;;;;;;1.67;0.90;;;28.10;36.40;;;;;;20916911;28;20053;-59
2022/06/08 18:59:42;;;;;;;6.80;3.97;;;28.10;36.70;;;;;;20916503;28;20060;-61
2022/06/08 19:09:44;;;;;;;2.63;1.33;;;28.10;35.90;;;;;;20865208;28;20080;-60
2022/06/08 19:30:11;;;;;;;3.33;1.10;;;27.80;36.00;;;;;;20878358;28;20059;-58
2022/06/08 19:40:13;;;;;;;24.45;18.20;;;27.60;36.20;;;;;;20869704;28;20053;-70
2022/06/08 19:50:15;;;;;;;8.25;5.30;;;27.50;36.50;;;;;;20831137;28;20457;-67
2022/06/08 20:00:18;;;;;;;28.77;21.15;;;27.50;36.70;;;;;;20862223;28;20063;-68
2022/06/08 20:10:20;;;;;;;3.03;0.70;;;27.40;37.30;;;;;;20829195;28;20395;-64
2022/06/08 20:20:23;;;;;;;2.35;0.80;;;27.20;38.20;;;;;;20830472;28;20400;-68
2022/06/08 20:30:26;;;;;;;2.03;1.48;;;27.10;38.70;;;;;;20829757;28;20416;-68
2022/06/08 20:40:28;;;;;;;2.60;0.70;;;27.10;39.10;;;;;;20830269;28;20128;-67
2022/06/08 20:50:32;;;;;;;3.03;1.65;;;27.00;39.30;;;;;;20828405;28;20064;-68
2022/06/08 21:00:35;;;;;;;5.72;4.53;;;26.90;39.60;;;;;;20827328;28;20420;-69
2022/06/08 21:10:38;;;;;;;2.50;1.05;;;26.80;40.10;;;;;;20827173;28;20041;-69
2022/06/08 21:20:41;;;;;;;1.58;0.90;;;26.60;40.50;;;;;;20826881;28;20056;-68
2022/06/08 21:30:44;;;;;;;1.83;0.90;;;26.60;40.80;;;;;;20875880;28;20095;-65
2022/06/08 21:40:45;;;;;;;;;;;26.40;41.20;;;;;;20921762;28;20121;-69
2022/06/08 21:50:48;;;;;;;2.10;1.20;;;26.20;41.90;;;;;;20902170;28;19947;-67
2022/06/08 22:00:56;;;;;;;2.75;0.70;;;26.00;42.50;;;;;;20860871;28;20057;-68
2022/06/08 22:11:03;;;;;;;2.08;1.20;;;25.90;43.00;;;;;;20880590;28;20052;-68
2022/06/08 22:21:07;;;;;;;2.83;2.05;;;25.80;43.40;;;;;;20839809;28;20054;-70
2022/06/08 22:31:10;;;;;;;3.08;1.48;;;25.60;43.90;;;;;;20837436;28;20041;-65
2022/06/08 22:41:12;;;;;;;1.60;0.60;;;25.60;44.20;;;;;;20837248;28;20053;-68
2022/06/08 22:51:14;;;;;;;3.67;0.88;;;25.50;44.30;;;;;;20836311;28;20052;-69
2022/06/08 23:01:16;;;;;;;2.72;1.17;;;25.40;44.60;;;;;;20836384;28;20049;-67
2022/06/08 23:21:37;;;;;;;2.38;1.27;;;25.10;45.40;;;;;;20834495;28;19921;-67
2022/06/08 23:31:39;;;;;;;2.05;0.60;;;25.00;45.80;;;;;;20834262;28;20124;-68
2022/06/08 23:41:41;;;;;;;;;;;24.80;46.20;;;;;;20833332;28;20057;-67
2022/06/08 23:51:43;;;;;;;0.97;0.60;;;24.60;46.60;;;;;;20831160;28;20411;-67
